sensor_id;sensor_type;location;lat;lon;timestamp;P1;P4;P2;P0;N10;N4;N25;N1;N05;TS
78158;SPS30;67402;47.196;19.300;2024-01-30T00:00:02;0.00;0.00;0.00;0.00;;;;162.33;1.00;
78158;SPS30;67402;47.196;19.300;2024-01-30T00:01:06;0.00;0.00;0.00;0.00;;;;160.50;1.00;
78158;SPS30;67402;47.196;19.300;2024-01-30T00:02:09;0.00;0.00;0.00;0.00;;;;160.00;1.00;
78158;SPS30;67402;47.196;19.300;2024-01-30T00:03:12;0.00;0.00;0.00;0.00;;;;159.00;1.00;
78158;SPS30;67402;47.196;19.300;2024-01-30T00:04:17;0.00;0.00;0.00;0.00;;;;156.83;1.00;
78158;SPS30;67402;47.196;19.300;2024-01-30T00:05:20;0.00;0.00;0.00;0.00;;;;155.50;1.00;
78158;SPS30;67402;47.196;19.300;2024-01-30T00:06:22;0.00;0.00;0.00;0.00;;;;153.50;1.00;
78158;SPS30;67402;47.196;19.300;2024-01-30T00:07:26;0.00;0.00;0.00;0.00;;;;149.33;1.00;
78158;SPS30;67402;47.196;19.300;2024-01-30T00:08:28;0.00;0.00;0.00;0.00;;;;145.00;1.00;
78158;SPS30;67402;47.196;19.300;2024-01-30T00:09:31;0.00;0.00;0.00;0.00;;;;143.33;1.00;
78158;SPS30;67402;47.196;19.300;2024-01-30T00:10:34;0.00;0.00;0.00;0.00;;;;142.33;1.00;
78158;SPS30;67402;47.196;19.300;2024-01-30T00:11:37;0.00;0.00;0.00;0.00;;;;139.50;1.00;
78158;SPS30;67402;47.196;19.300;2024-01-30T00:12:40;0.00;0.00;0.00;0.00;;;;134.33;1.00;
78158;SPS30;67402;47.196;19.300;2024-01-30T00:13:43;0.00;0.00;0.00;0.00;;;;130.83;1.00;
78158;SPS30;67402;47.196;19.300;2024-01-30T00:14:45;0.00;0.00;0.00;0.00;;;;129.83;1.00;
78158;SPS30;67402;47.196;19.300;2024-01-30T00:15:48;0.00;0.00;0.00;0.00;;;;130.33;1.00;
78158;SPS30;67402;47.196;19.300;2024-01-30T00:16:51;0.00;0.00;0.00;0.00;;;;131.00;1.00;
78158;SPS30;67402;47.196;19.300;2024-01-30T00:17:54;0.00;0.00;0.00;0.00;;;;129.83;1.00;
78158;SPS30;67402;47.196;19.300;2024-01-30T00:18:57;0.00;0.00;0.00;0.00;;;;123.50;1.00;
78158;SPS30;67402;47.196;19.300;2024-01-30T00:20:00;0.00;0.00;0.00;0.00;;;;118.67;1.00;
78158;SPS30;67402;47.196;19.300;2024-01-30T00:21:02;0.00;0.00;0.00;0.00;;;;118.33;1.00;
78158;SPS30;67402;47.196;19.300;2024-01-30T00:22:06;0.00;0.00;0.00;0.00;;;;120.17;1.00;
78158;SPS30;67402;47.196;19.300;2024-01-30T00:23:09;0.00;0.00;0.00;0.00;;;;123.00;1.00;
78158;SPS30;67402;47.196;19.300;2024-01-30T00:24:12;0.00;0.00;0.00;0.00;;;;130.17;1.00;
78158;SPS30;67402;47.196;19.300;2024-01-30T00:25:14;0.00;0.00;0.00;0.00;;;;136.33;1.00;
78158;SPS30;67402;47.196;19.300;2024-01-30T00:26:17;0.00;0.00;0.00;0.00;;;;142.33;1.00;
78158;SPS30;67402;47.196;19.300;2024-01-30T00:27:20;0.00;0.00;0.00;0.00;;;;146.83;1.00;
78158;SPS30;67402;47.196;19.300;2024-01-30T00:28:23;0.00;0.00;0.00;0.00;;;;147.00;1.00;
78158;SPS30;67402;47.196;19.300;2024-01-30T00:29:25;0.00;0.00;0.00;0.00;;;;146.50;1.00;
78158;SPS30;67402;47.196;19.300;2024-01-30T00:30:32;0.00;0.00;0.00;0.00;;;;146.83;1.00;
78158;SPS30;67402;47.196;19.300;2024-01-30T00:31:35;0.00;0.00;0.00;0.00;;;;147.00;1.00;
78158;SPS30;67402;47.196;19.300;2024-01-30T00:32:42;0.00;0.00;0.00;0.00;;;;145.67;1.00;
78158;SPS30;67402;47.196;19.300;2024-01-30T00:33:44;0.00;0.00;0.00;0.00;;;;142.17;1.00;
78158;SPS30;67402;47.196;19.300;2024-01-30T00:34:47;0.00;0.00;0.00;0.00;;;;135.50;1.00;
78158;SPS30;67402;47.196;19.300;2024-01-30T00:35:50;0.00;0.00;0.00;0.00;;;;130.33;1.00;
78158;SPS30;67402;47.196;19.300;2024-01-30T00:36:52;0.00;0.00;0.00;0.00;;;;126.50;1.00;
78158;SPS30;67402;47.196;19.300;2024-01-30T00:37:55;0.00;0.00;0.00;0.00;;;;124.83;1.00;
78158;SPS30;67402;47.196;19.300;2024-01-30T00:38:58;0.00;0.00;0.00;0.00;;;;125.33;1.00;
78158;SPS30;67402;47.196;19.300;2024-01-30T00:40:00;0.00;0.00;0.00;0.00;;;;126.33;1.00;
78158;SPS30;67402;47.196;19.300;2024-01-30T00:41:03;0.00;0.00;0.00;0.00;;;;127.33;1.00;
78158;SPS30;67402;47.196;19.300;2024-01-30T00:42:06;0.00;0.00;0.00;0.00;;;;128.50;1.00;
78158;SPS30;67402;47.196;19.300;2024-01-30T00:43:09;0.00;0.00;0.00;0.00;;;;129.50;1.00;
78158;SPS30;67402;47.196;19.300;2024-01-30T00:44:11;0.00;0.00;0.00;0.00;;;;130.00;1.00;
78158;SPS30;67402;47.196;19.300;2024-01-30T00:45:14;0.00;0.00;0.00;0.00;;;;130.67;1.00;
78158;SPS30;67402;47.196;19.300;2024-01-30T00:46:17;0.00;0.00;0.00;0.00;;;;131.33;1.00;
78158;SPS30;67402;47.196;19.300;2024-01-30T00:47:20;0.00;0.00;0.00;0.00;;;;132.17;1.00;
78158;SPS30;67402;47.196;19.300;2024-01-30T00:48:23;0.00;0.00;0.00;0.00;;;;133.00;1.00;
78158;SPS30;67402;47.196;19.300;2024-01-30T00:49:26;0.00;0.00;0.00;0.00;;;;134.33;1.00;
78158;SPS30;67402;47.196;19.300;2024-01-30T00:50:29;0.00;0.00;0.00;0.00;;;;136.17;1.00;
78158;SPS30;67402;47.196;19.300;2024-01-30T00:51:31;0.00;0.00;0.00;0.00;;;;138.33;1.00;
78158;SPS30;67402;47.196;19.300;2024-01-30T00:52:34;0.00;0.00;0.00;0.00;;;;141.33;1.00;
78158;SPS30;67402;47.196;19.300;2024-01-30T00:53:37;0.00;0.00;0.00;0.00;;;;144.33;1.00;
78158;SPS30;67402;47.196;19.300;2024-01-30T00:54:40;0.00;0.00;0.00;0.00;;;;146.50;1.00;
78158;SPS30;67402;47.196;19.300;2024-01-30T00:55:43;0.00;0.00;0.00;0.00;;;;147.83;1.00;
78158;SPS30;67402;47.196;19.300;2024-01-30T00:56:45;0.00;0.00;0.00;0.00;;;;151.00;1.00;
78158;SPS30;67402;47.196;19.300;2024-01-30T00:57:48;0.00;0.00;0.00;0.00;;;;153.33;1.00;
78158;SPS30;67402;47.196;19.300;2024-01-30T00:58:51;0.00;0.00;0.00;0.00;;;;156.83;1.00;
78158;SPS30;67402;47.196;19.300;2024-01-30T00:59:53;0.00;0.00;0.00;0.00;;;;160.33;1.00;
78158;SPS30;67402;47.196;19.300;2024-01-30T01:00:58;0.00;0.00;0.00;0.00;;;;165.33;1.00;
78158;SPS30;67402;47.196;19.300;2024-01-30T01:02:01;0.00;0.00;0.00;0.00;;;;171.83;1.00;
78158;SPS30;67402;47.196;19.300;2024-01-30T01:03:04;0.00;0.00;0.00;0.00;;;;179.67;1.00;
78158;SPS30;67402;47.196;19.300;2024-01-30T01:04:07;0.00;0.00;0.00;0.00;;;;182.17;1.00;
78158;SPS30;67402;47.196;19.300;2024-01-30T01:05:09;0.00;0.00;0.00;0.00;;;;184.17;1.00;
78158;SPS30;67402;47.196;19.300;2024-01-30T01:06:12;0.00;0.00;0.00;0.00;;;;185.33;1.00;
78158;SPS30;67402;47.196;19.300;2024-01-30T01:07:15;0.00;0.00;0.00;0.00;;;;184.33;1.00;
78158;SPS30;67402;47.196;19.300;2024-01-30T01:08:17;0.00;0.00;0.00;0.00;;;;181.17;1.00;
78158;SPS30;67402;47.196;19.300;2024-01-30T01:09:20;0.00;0.00;0.00;0.00;;;;179.50;1.00;
78158;SPS30;67402;47.196;19.300;2024-01-30T01:10:23;0.00;0.00;0.00;0.00;;;;178.17;1.00;
78158;SPS30;67402;47.196;19.300;2024-01-30T01:11:25;0.00;0.00;0.00;0.00;;;;177.67;1.00;
78158;SPS30;67402;47.196;19.300;2024-01-30T01:12:28;0.00;0.00;0.00;0.00;;;;175.83;1.00;
78158;SPS30;67402;47.196;19.300;2024-01-30T01:13:31;0.00;0.00;0.00;0.00;;;;169.17;1.00;
78158;SPS30;67402;47.196;19.300;2024-01-30T01:14:33;0.00;0.00;0.00;0.00;;;;160.50;1.00;
78158;SPS30;67402;47.196;19.300;2024-01-30T01:15:36;0.00;0.00;0.00;0.00;;;;154.00;1.00;
78158;SPS30;67402;47.196;19.300;2024-01-30T01:16:39;0.00;0.00;0.00;0.00;;;;152.33;1.00;
78158;SPS30;67402;47.196;19.300;2024-01-30T01:17:41;0.00;0.00;0.00;0.00;;;;153.83;1.00;
78158;SPS30;67402;47.196;19.300;2024-01-30T01:18:44;0.00;0.00;0.00;0.00;;;;154.33;1.00;
78158;SPS30;67402;47.196;19.300;2024-01-30T01:19:47;0.00;0.00;0.00;0.00;;;;155.00;1.00;
78158;SPS30;67402;47.196;19.300;2024-01-30T01:20:50;0.00;0.00;0.00;0.00;;;;155.50;1.00;
78158;SPS30;67402;47.196;19.300;2024-01-30T01:21:52;0.00;0.00;0.00;0.00;;;;156.00;1.00;
78158;SPS30;67402;47.196;19.300;2024-01-30T01:22:55;0.00;0.00;0.00;0.00;;;;156.83;1.00;
78158;SPS30;67402;47.196;19.300;2024-01-30T01:23:58;0.00;0.00;0.00;0.00;;;;156.33;1.00;
78158;SPS30;67402;47.196;19.300;2024-01-30T01:25:01;0.00;0.00;0.00;0.00;;;;155.67;1.00;
78158;SPS30;67402;47.196;19.300;2024-01-30T01:26:04;0.00;0.00;0.00;0.00;;;;154.67;1.00;
78158;SPS30;67402;47.196;19.300;2024-01-30T01:27:07;0.00;0.00;0.00;0.00;;;;152.00;1.00;
78158;SPS30;67402;47.196;19.300;2024-01-30T01:28:10;0.00;0.00;0.00;0.00;;;;151.00;1.00;
78158;SPS30;67402;47.196;19.300;2024-01-30T01:29:13;0.00;0.00;0.00;0.00;;;;151.00;1.00;
78158;SPS30;67402;47.196;19.300;2024-01-30T01:30:15;0.00;0.00;0.00;0.00;;;;151.00;1.00;
78158;SPS30;67402;47.196;19.300;2024-01-30T01:31:23;0.00;0.00;0.00;0.00;;;;151.00;1.00;
78158;SPS30;67402;47.196;19.300;2024-01-30T01:32:27;0.00;0.00;0.00;0.00;;;;151.00;1.00;
78158;SPS30;67402;47.196;19.300;2024-01-30T01:33:30;0.00;0.00;0.00;0.00;;;;151.00;1.00;
78158;SPS30;67402;47.196;19.300;2024-01-30T01:34:34;0.00;0.00;0.00;0.00;;;;150.67;1.00;
78158;SPS30;67402;47.196;19.300;2024-01-30T01:35:37;0.00;0.00;0.00;0.00;;;;149.50;1.00;
78158;SPS30;67402;47.196;19.300;2024-01-30T01:36:39;0.00;0.00;0.00;0.00;;;;148.33;1.00;
78158;SPS30;67402;47.196;19.300;2024-01-30T01:37:42;0.00;0.00;0.00;0.00;;;;147.00;1.00;
78158;SPS30;67402;47.196;19.300;2024-01-30T01:38:45;0.00;0.00;0.00;0.00;;;;147.00;1.00;
78158;SPS30;67402;47.196;19.300;2024-01-30T01:39:47;0.00;0.00;0.00;0.00;;;;146.83;1.00;
78158;SPS30;67402;47.196;19.300;2024-01-30T01:40:50;0.00;0.00;0.00;0.00;;;;146.00;1.00;
78158;SPS30;67402;47.196;19.300;2024-01-30T01:41:53;0.00;0.00;0.00;0.00;;;;145.17;1.00;
78158;SPS30;67402;47.196;19.300;2024-01-30T01:42:56;0.00;0.00;0.00;0.00;;;;144.33;1.00;
78158;SPS30;67402;47.196;19.300;2024-01-30T01:43:59;0.00;0.00;0.00;0.00;;;;141.00;1.00;
78158;SPS30;67402;47.196;19.300;2024-01-30T01:45:01;0.00;0.00;0.00;0.00;;;;135.83;1.00;
78158;SPS30;67402;47.196;19.300;2024-01-30T01:46:04;0.00;0.00;0.00;0.00;;;;134.67;1.00;
78158;SPS30;67402;47.196;19.300;2024-01-30T01:47:08;0.00;0.00;0.00;0.00;;;;134.83;1.00;
78158;SPS30;67402;47.196;19.300;2024-01-30T01:48:11;0.00;0.00;0.00;0.00;;;;134.50;1.00;
78158;SPS30;67402;47.196;19.300;2024-01-30T01:49:15;0.00;0.00;0.00;0.00;;;;132.17;1.00;
78158;SPS30;67402;47.196;19.300;2024-01-30T01:50:18;0.00;0.00;0.00;0.00;;;;129.83;1.00;
78158;SPS30;67402;47.196;19.300;2024-01-30T01:51:21;0.00;0.00;0.00;0.00;;;;124.67;1.00;
78158;SPS30;67402;47.196;19.300;2024-01-30T01:52:24;0.00;0.00;0.00;0.00;;;;121.17;1.00;
78158;SPS30;67402;47.196;19.300;2024-01-30T01:53:27;0.00;0.00;0.00;0.00;;;;119.83;1.00;
78158;SPS30;67402;47.196;19.300;2024-01-30T01:54:30;0.00;0.00;0.00;0.00;;;;117.83;1.00;
78158;SPS30;67402;47.196;19.300;2024-01-30T01:55:33;0.00;0.00;0.00;0.00;;;;117.00;1.00;
78158;SPS30;67402;47.196;19.300;2024-01-30T01:56:37;0.00;0.00;0.00;0.00;;;;116.50;1.00;
78158;SPS30;67402;47.196;19.300;2024-01-30T01:57:41;0.00;0.00;0.00;0.00;;;;117.17;1.00;
78158;SPS30;67402;47.196;19.300;2024-01-30T01:58:44;0.00;0.00;0.00;0.00;;;;118.33;1.00;
78158;SPS30;67402;47.196;19.300;2024-01-30T01:59:48;0.00;0.00;0.00;0.00;;;;119.17;1.00;
78158;SPS30;67402;47.196;19.300;2024-01-30T02:00:51;0.00;0.00;0.00;0.00;;;;120.00;1.00;
78158;SPS30;67402;47.196;19.300;2024-01-30T02:01:54;0.00;0.00;0.00;0.00;;;;120.00;1.00;
78158;SPS30;67402;47.196;19.300;2024-01-30T02:02:58;0.00;0.00;0.00;0.00;;;;120.17;1.00;
78158;SPS30;67402;47.196;19.300;2024-01-30T02:04:01;0.00;0.00;0.00;0.00;;;;121.00;1.00;
78158;SPS30;67402;47.196;19.300;2024-01-30T02:05:04;0.00;0.00;0.00;0.00;;;;121.50;1.00;
78158;SPS30;67402;47.196;19.300;2024-01-30T02:06:07;0.00;0.00;0.00;0.00;;;;122.00;1.00;
78158;SPS30;67402;47.196;19.300;2024-01-30T02:07:12;0.00;0.00;0.00;0.00;;;;123.00;1.00;
78158;SPS30;67402;47.196;19.300;2024-01-30T02:08:15;0.00;0.00;0.00;0.00;;;;123.67;1.00;
78158;SPS30;67402;47.196;19.300;2024-01-30T02:09:18;0.00;0.00;0.00;0.00;;;;124.50;1.00;
78158;SPS30;67402;47.196;19.300;2024-01-30T02:10:21;0.00;0.00;0.00;0.00;;;;126.17;1.00;
78158;SPS30;67402;47.196;19.300;2024-01-30T02:11:23;0.00;0.00;0.00;0.00;;;;127.33;1.00;
78158;SPS30;67402;47.196;19.300;2024-01-30T02:12:26;0.00;0.00;0.00;0.00;;;;128.00;1.00;
78158;SPS30;67402;47.196;19.300;2024-01-30T02:13:29;0.00;0.00;0.00;0.00;;;;128.83;1.00;
78158;SPS30;67402;47.196;19.300;2024-01-30T02:14:31;0.00;0.00;0.00;0.00;;;;129.67;1.00;
78158;SPS30;67402;47.196;19.300;2024-01-30T02:15:34;0.00;0.00;0.00;0.00;;;;130.00;1.00;
78158;SPS30;67402;47.196;19.300;2024-01-30T02:16:37;0.00;0.00;0.00;0.00;;;;131.00;1.00;
78158;SPS30;67402;47.196;19.300;2024-01-30T02:17:39;0.00;0.00;0.00;0.00;;;;131.00;1.00;
78158;SPS30;67402;47.196;19.300;2024-01-30T02:18:42;0.00;0.00;0.00;0.00;;;;131.00;1.00;
78158;SPS30;67402;47.196;19.300;2024-01-30T02:19:47;0.00;0.00;0.00;0.00;;;;131.00;1.00;
78158;SPS30;67402;47.196;19.300;2024-01-30T02:20:50;0.00;0.00;0.00;0.00;;;;131.00;1.00;
78158;SPS30;67402;47.196;19.300;2024-01-30T02:21:55;0.00;0.00;0.00;0.00;;;;131.67;1.00;
78158;SPS30;67402;47.196;19.300;2024-01-30T02:22:58;0.00;0.00;0.00;0.00;;;;133.00;1.00;
78158;SPS30;67402;47.196;19.300;2024-01-30T02:24:03;0.00;0.00;0.00;0.00;;;;134.00;1.00;
78158;SPS30;67402;47.196;19.300;2024-01-30T02:25:07;0.00;0.00;0.00;0.00;;;;133.67;1.00;
78158;SPS30;67402;47.196;19.300;2024-01-30T02:26:10;0.00;0.00;0.00;0.00;;;;130.50;1.00;
78158;SPS30;67402;47.196;19.300;2024-01-30T02:27:14;0.00;0.00;0.00;0.00;;;;125.50;1.00;
78158;SPS30;67402;47.196;19.300;2024-01-30T02:28:16;0.00;0.00;0.00;0.00;;;;122.50;1.00;
78158;SPS30;67402;47.196;19.300;2024-01-30T02:29:19;0.00;0.00;0.00;0.00;;;;119.50;1.00;
78158;SPS30;67402;47.196;19.300;2024-01-30T02:30:21;0.00;0.00;0.00;0.00;;;;116.00;1.00;
78158;SPS30;67402;47.196;19.300;2024-01-30T02:31:25;0.00;0.00;0.00;0.00;;;;113.17;1.00;
78158;SPS30;67402;47.196;19.300;2024-01-30T02:32:28;0.00;0.00;0.00;0.00;;;;113.00;1.00;
78158;SPS30;67402;47.196;19.300;2024-01-30T02:33:30;0.00;0.00;0.00;0.00;;;;113.00;1.00;
78158;SPS30;67402;47.196;19.300;2024-01-30T02:34:33;0.00;0.00;0.00;0.00;;;;113.50;1.00;
78158;SPS30;67402;47.196;19.300;2024-01-30T02:35:36;0.00;0.00;0.00;0.00;;;;114.17;1.00;
78158;SPS30;67402;47.196;19.300;2024-01-30T02:36:38;0.00;0.00;0.00;0.00;;;;115.00;1.00;
78158;SPS30;67402;47.196;19.300;2024-01-30T02:37:45;0.00;0.00;0.00;0.00;;;;115.00;1.00;
78158;SPS30;67402;47.196;19.300;2024-01-30T02:38:47;0.00;0.00;0.00;0.00;;;;115.00;1.00;
78158;SPS30;67402;47.196;19.300;2024-01-30T02:39:50;0.00;0.00;0.00;0.00;;;;115.00;1.00;
78158;SPS30;67402;47.196;19.300;2024-01-30T02:40:53;0.00;0.00;0.00;0.00;;;;115.00;1.00;
78158;SPS30;67402;47.196;19.300;2024-01-30T02:41:55;0.00;0.00;0.00;0.00;;;;113.83;1.00;
78158;SPS30;67402;47.196;19.300;2024-01-30T02:42:59;0.00;0.00;0.00;0.00;;;;113.00;1.00;
78158;SPS30;67402;47.196;19.300;2024-01-30T02:44:05;0.00;0.00;0.00;0.00;;;;112.17;1.00;
78158;SPS30;67402;47.196;19.300;2024-01-30T02:45:08;0.00;0.00;0.00;0.00;;;;111.33;1.00;
78158;SPS30;67402;47.196;19.300;2024-01-30T02:46:13;0.00;0.00;0.00;0.00;;;;111.00;1.00;
78158;SPS30;67402;47.196;19.300;2024-01-30T02:47:16;0.00;0.00;0.00;0.00;;;;111.00;1.00;
78158;SPS30;67402;47.196;19.300;2024-01-30T02:48:18;0.00;0.00;0.00;0.00;;;;110.17;1.00;
78158;SPS30;67402;47.196;19.300;2024-01-30T02:49:21;0.00;0.00;0.00;0.00;;;;110.50;1.00;
78158;SPS30;67402;47.196;19.300;2024-01-30T02:50:24;0.00;0.00;0.00;0.00;;;;111.00;1.00;
78158;SPS30;67402;47.196;19.300;2024-01-30T02:51:27;0.00;0.00;0.00;0.00;;;;111.33;1.00;
78158;SPS30;67402;47.196;19.300;2024-01-30T02:52:29;0.00;0.00;0.00;0.00;;;;113.33;1.00;
78158;SPS30;67402;47.196;19.300;2024-01-30T02:53:32;0.00;0.00;0.00;0.00;;;;121.83;1.00;
78158;SPS30;67402;47.196;19.300;2024-01-30T02:54:35;0.00;0.00;0.00;0.00;;;;124.50;1.00;
78158;SPS30;67402;47.196;19.300;2024-01-30T02:55:37;0.00;0.00;0.00;0.00;;;;123.33;1.00;
78158;SPS30;67402;47.196;19.300;2024-01-30T02:56:40;0.00;0.00;0.00;0.00;;;;122.00;1.00;
78158;SPS30;67402;47.196;19.300;2024-01-30T02:57:42;0.00;0.00;0.00;0.00;;;;121.17;1.00;
78158;SPS30;67402;47.196;19.300;2024-01-30T02:58:45;0.00;0.00;0.00;0.00;;;;122.33;1.00;
78158;SPS30;67402;47.196;19.300;2024-01-30T02:59:48;0.00;0.00;0.00;0.00;;;;123.67;1.00;
78158;SPS30;67402;47.196;19.300;2024-01-30T03:00:50;0.00;0.00;0.00;0.00;;;;127.17;1.00;
78158;SPS30;67402;47.196;19.300;2024-01-30T03:01:53;0.00;0.00;0.00;0.00;;;;131.50;1.00;
78158;SPS30;67402;47.196;19.300;2024-01-30T03:02:56;0.00;0.00;0.00;0.00;;;;136.50;1.00;
78158;SPS30;67402;47.196;19.300;2024-01-30T03:03:59;0.00;0.00;0.00;0.00;;;;141.17;1.00;
78158;SPS30;67402;47.196;19.300;2024-01-30T03:05:01;0.00;0.00;0.00;0.00;;;;143.50;1.00;
78158;SPS30;67402;47.196;19.300;2024-01-30T03:06:05;0.00;0.00;0.00;0.00;;;;143.50;1.00;
78158;SPS30;67402;47.196;19.300;2024-01-30T03:07:09;0.00;0.00;0.00;0.00;;;;143.17;1.00;
78158;SPS30;67402;47.196;19.300;2024-01-30T03:08:12;0.00;0.00;0.00;0.00;;;;143.67;1.00;
78158;SPS30;67402;47.196;19.300;2024-01-30T03:09:17;0.00;0.00;0.00;0.00;;;;144.17;1.00;
78158;SPS30;67402;47.196;19.300;2024-01-30T03:10:20;0.00;0.00;0.00;0.00;;;;147.33;1.00;
78158;SPS30;67402;47.196;19.300;2024-01-30T03:11:23;0.00;0.00;0.00;0.00;;;;153.83;1.00;
78158;SPS30;67402;47.196;19.300;2024-01-30T03:12:26;0.00;0.00;0.00;0.00;;;;157.17;1.00;
78158;SPS30;67402;47.196;19.300;2024-01-30T03:13:28;0.00;0.00;0.00;0.00;;;;158.17;1.00;
78158;SPS30;67402;47.196;19.300;2024-01-30T03:14:31;0.00;0.00;0.00;0.00;;;;157.17;1.00;
78158;SPS30;67402;47.196;19.300;2024-01-30T03:15:37;0.00;0.00;0.00;0.00;;;;155.33;1.00;
78158;SPS30;67402;47.196;19.300;2024-01-30T03:16:40;0.00;0.00;0.00;0.00;;;;153.67;1.00;
78158;SPS30;67402;47.196;19.300;2024-01-30T03:17:42;0.00;0.00;0.00;0.00;;;;152.83;1.00;
78158;SPS30;67402;47.196;19.300;2024-01-30T03:18:45;0.00;0.00;0.00;0.00;;;;152.00;1.00;
78158;SPS30;67402;47.196;19.300;2024-01-30T03:19:48;0.00;0.00;0.00;0.00;;;;152.00;1.00;
78158;SPS30;67402;47.196;19.300;2024-01-30T03:20:50;0.00;0.00;0.00;0.00;;;;151.00;1.00;
78158;SPS30;67402;47.196;19.300;2024-01-30T03:21:53;0.00;0.00;0.00;0.00;;;;150.67;1.00;
78158;SPS30;67402;47.196;19.300;2024-01-30T03:22:56;0.00;0.00;0.00;0.00;;;;147.17;1.00;
78158;SPS30;67402;47.196;19.300;2024-01-30T03:23:58;0.00;0.00;0.00;0.00;;;;138.50;1.00;
78158;SPS30;67402;47.196;19.300;2024-01-30T03:25:01;0.00;0.00;0.00;0.00;;;;131.00;1.00;
78158;SPS30;67402;47.196;19.300;2024-01-30T03:26:04;0.00;0.00;0.00;0.00;;;;128.17;1.00;
78158;SPS30;67402;47.196;19.300;2024-01-30T03:27:08;0.00;0.00;0.00;0.00;;;;127.67;1.00;
78158;SPS30;67402;47.196;19.300;2024-01-30T03:28:11;0.00;0.00;0.00;0.00;;;;127.33;1.00;
78158;SPS30;67402;47.196;19.300;2024-01-30T03:29:14;0.00;0.00;0.00;0.00;;;;128.00;1.00;
78158;SPS30;67402;47.196;19.300;2024-01-30T03:30:17;0.00;0.00;0.00;0.00;;;;127.67;1.00;
78158;SPS30;67402;47.196;19.300;2024-01-30T03:31:20;0.00;0.00;0.00;0.00;;;;126.33;1.00;
78158;SPS30;67402;47.196;19.300;2024-01-30T03:32:26;0.00;0.00;0.00;0.00;;;;125.33;1.00;
78158;SPS30;67402;47.196;19.300;2024-01-30T03:33:29;0.00;0.00;0.00;0.00;;;;126.00;1.00;
78158;SPS30;67402;47.196;19.300;2024-01-30T03:34:31;0.00;0.00;0.00;0.00;;;;126.00;1.00;
78158;SPS30;67402;47.196;19.300;2024-01-30T03:35:34;0.00;0.00;0.00;0.00;;;;124.83;1.00;
78158;SPS30;67402;47.196;19.300;2024-01-30T03:36:37;0.00;0.00;0.00;0.00;;;;124.00;1.00;
78158;SPS30;67402;47.196;19.300;2024-01-30T03:37:40;0.00;0.00;0.00;0.00;;;;124.00;1.00;
78158;SPS30;67402;47.196;19.300;2024-01-30T03:38:42;0.00;0.00;0.00;0.00;;;;123.50;1.00;
78158;SPS30;67402;47.196;19.300;2024-01-30T03:39:45;0.00;0.00;0.00;0.00;;;;123.00;1.00;
78158;SPS30;67402;47.196;19.300;2024-01-30T03:40:48;0.00;0.00;0.00;0.00;;;;123.00;1.00;
78158;SPS30;67402;47.196;19.300;2024-01-30T03:41:50;0.00;0.00;0.00;0.00;;;;123.17;1.00;
78158;SPS30;67402;47.196;19.300;2024-01-30T03:42:53;0.00;0.00;0.00;0.00;;;;124.00;1.00;
78158;SPS30;67402;47.196;19.300;2024-01-30T03:43:55;0.00;0.00;0.00;0.00;;;;124.50;1.00;
78158;SPS30;67402;47.196;19.300;2024-01-30T03:44:58;0.00;0.00;0.00;0.00;;;;125.00;1.00;
78158;SPS30;67402;47.196;19.300;2024-01-30T03:46:01;0.00;0.00;0.00;0.00;;;;125.00;1.00;
78158;SPS30;67402;47.196;19.300;2024-01-30T03:47:05;0.00;0.00;0.00;0.00;;;;125.33;1.00;
78158;SPS30;67402;47.196;19.300;2024-01-30T03:48:07;0.00;0.00;0.00;0.00;;;;126.00;1.00;
78158;SPS30;67402;47.196;19.300;2024-01-30T03:49:10;0.00;0.00;0.00;0.00;;;;126.50;1.00;
78158;SPS30;67402;47.196;19.300;2024-01-30T03:50:13;0.00;0.00;0.00;0.00;;;;127.00;1.00;
78158;SPS30;67402;47.196;19.300;2024-01-30T03:51:16;0.00;0.00;0.00;0.00;;;;127.00;1.00;
78158;SPS30;67402;47.196;19.300;2024-01-30T03:52:18;0.00;0.00;0.00;0.00;;;;127.50;1.00;
78158;SPS30;67402;47.196;19.300;2024-01-30T03:53:21;0.00;0.00;0.00;0.00;;;;129.67;1.00;
78158;SPS30;67402;47.196;19.300;2024-01-30T03:54:24;0.00;0.00;0.00;0.00;;;;134.17;1.00;
78158;SPS30;67402;47.196;19.300;2024-01-30T03:55:26;0.00;0.00;0.00;0.00;;;;139.17;1.00;
78158;SPS30;67402;47.196;19.300;2024-01-30T03:56:29;0.00;0.00;0.00;0.00;;;;147.83;1.00;
78158;SPS30;67402;47.196;19.300;2024-01-30T03:57:32;0.00;0.00;0.00;0.00;;;;149.00;1.00;
78158;SPS30;67402;47.196;19.300;2024-01-30T03:58:34;0.00;0.00;0.00;0.00;;;;149.00;1.00;
78158;SPS30;67402;47.196;19.300;2024-01-30T03:59:37;0.00;0.00;0.00;0.00;;;;147.33;1.00;
78158;SPS30;67402;47.196;19.300;2024-01-30T04:00:40;0.00;0.00;0.00;0.00;;;;146.00;1.00;
78158;SPS30;67402;47.196;19.300;2024-01-30T04:01:45;0.00;0.00;0.00;0.00;;;;144.00;1.00;
78158;SPS30;67402;47.196;19.300;2024-01-30T04:02:49;0.00;0.00;0.00;0.00;;;;140.50;1.00;
78158;SPS30;67402;47.196;19.300;2024-01-30T04:03:53;0.00;0.00;0.00;0.00;;;;136.83;1.00;
78158;SPS30;67402;47.196;19.300;2024-01-30T04:04:56;0.00;0.00;0.00;0.00;;;;132.50;1.00;
78158;SPS30;67402;47.196;19.300;2024-01-30T04:05:59;0.00;0.00;0.00;0.00;;;;128.50;1.00;
78158;SPS30;67402;47.196;19.300;2024-01-30T04:07:02;0.00;0.00;0.00;0.00;;;;125.50;1.00;
78158;SPS30;67402;47.196;19.300;2024-01-30T04:08:04;0.00;0.00;0.00;0.00;;;;123.83;1.00;
78158;SPS30;67402;47.196;19.300;2024-01-30T04:09:07;0.00;0.00;0.00;0.00;;;;122.83;1.00;
78158;SPS30;67402;47.196;19.300;2024-01-30T04:10:10;0.00;0.00;0.00;0.00;;;;122.00;1.00;
78158;SPS30;67402;47.196;19.300;2024-01-30T04:11:13;0.00;0.00;0.00;0.00;;;;122.00;1.00;
78158;SPS30;67402;47.196;19.300;2024-01-30T04:12:15;0.00;0.00;0.00;0.00;;;;122.00;1.00;
78158;SPS30;67402;47.196;19.300;2024-01-30T04:13:18;0.00;0.00;0.00;0.00;;;;122.00;1.00;
78158;SPS30;67402;47.196;19.300;2024-01-30T04:14:21;0.00;0.00;0.00;0.00;;;;122.00;1.00;
78158;SPS30;67402;47.196;19.300;2024-01-30T04:15:24;0.00;0.00;0.00;0.00;;;;121.67;1.00;
78158;SPS30;67402;47.196;19.300;2024-01-30T04:16:26;0.00;0.00;0.00;0.00;;;;121.00;1.00;
78158;SPS30;67402;47.196;19.300;2024-01-30T04:17:29;0.00;0.00;0.00;0.00;;;;121.00;1.00;
78158;SPS30;67402;47.196;19.300;2024-01-30T04:18:32;0.00;0.00;0.00;0.00;;;;121.00;1.00;
78158;SPS30;67402;47.196;19.300;2024-01-30T04:19:38;0.00;0.00;0.00;0.00;;;;121.00;1.00;
78158;SPS30;67402;47.196;19.300;2024-01-30T04:20:42;0.00;0.00;0.00;0.00;;;;121.67;1.00;
78158;SPS30;67402;47.196;19.300;2024-01-30T04:21:44;0.00;0.00;0.00;0.00;;;;122.00;1.00;
78158;SPS30;67402;47.196;19.300;2024-01-30T04:22:47;0.00;0.00;0.00;0.00;;;;122.83;1.00;
78158;SPS30;67402;47.196;19.300;2024-01-30T04:23:50;0.00;0.00;0.00;0.00;;;;123.00;1.00;
78158;SPS30;67402;47.196;19.300;2024-01-30T04:24:53;0.00;0.00;0.00;0.00;;;;123.00;1.00;
78158;SPS30;67402;47.196;19.300;2024-01-30T04:25:56;0.00;0.00;0.00;0.00;;;;123.00;1.00;
78158;SPS30;67402;47.196;19.300;2024-01-30T04:26:59;0.00;0.00;0.00;0.00;;;;122.17;1.00;
78158;SPS30;67402;47.196;19.300;2024-01-30T04:28:01;0.00;0.00;0.00;0.00;;;;121.17;1.00;
78158;SPS30;67402;47.196;19.300;2024-01-30T04:29:04;0.00;0.00;0.00;0.00;;;;119.33;1.00;
78158;SPS30;67402;47.196;19.300;2024-01-30T04:30:07;0.00;0.00;0.00;0.00;;;;116.17;1.00;
78158;SPS30;67402;47.196;19.300;2024-01-30T04:31:10;0.00;0.00;0.00;0.00;;;;113.33;1.00;
78158;SPS30;67402;47.196;19.300;2024-01-30T04:32:13;0.00;0.00;0.00;0.00;;;;110.67;1.00;
78158;SPS30;67402;47.196;19.300;2024-01-30T04:33:16;0.00;0.00;0.00;0.00;;;;110.00;1.00;
78158;SPS30;67402;47.196;19.300;2024-01-30T04:34:20;0.00;0.00;0.00;0.00;;;;108.83;1.00;
78158;SPS30;67402;47.196;19.300;2024-01-30T04:35:23;0.00;0.00;0.00;0.00;;;;107.67;1.00;
78158;SPS30;67402;47.196;19.300;2024-01-30T04:36:27;0.00;0.00;0.00;0.00;;;;107.00;1.00;
78158;SPS30;67402;47.196;19.300;2024-01-30T04:37:29;0.00;0.00;0.00;0.00;;;;106.00;1.00;
78158;SPS30;67402;47.196;19.300;2024-01-30T04:38:32;0.00;0.00;0.00;0.00;;;;105.17;1.00;
78158;SPS30;67402;47.196;19.300;2024-01-30T04:39:35;0.00;0.00;0.00;0.00;;;;105.00;1.00;
78158;SPS30;67402;47.196;19.300;2024-01-30T04:40:37;0.00;0.00;0.00;0.00;;;;105.83;1.00;
78158;SPS30;67402;47.196;19.300;2024-01-30T04:41:40;0.00;0.00;0.00;0.00;;;;105.17;1.00;
78158;SPS30;67402;47.196;19.300;2024-01-30T04:42:42;0.00;0.00;0.00;0.00;;;;105.17;1.00;
78158;SPS30;67402;47.196;19.300;2024-01-30T04:43:45;0.00;0.00;0.00;0.00;;;;106.00;1.00;